createdAt,value
2022-12-19T00:05:50.916Z,0.48
2022-12-19T00:08:18.587Z,0.47
2022-12-19T00:10:55.819Z,0.46
2022-12-19T00:13:23.399Z,0.49
2022-12-19T00:15:50.984Z,0.50
2022-12-19T00:18:18.706Z,0.51
2022-12-19T00:20:46.450Z,0.50
2022-12-19T00:23:15.334Z,0.54
2022-12-19T00:25:46.063Z,0.51
2022-12-19T00:28:14.769Z,0.54
2022-12-19T00:30:44.079Z,0.53
2022-12-19T00:33:11.746Z,0.55
2022-12-19T00:35:39.596Z,0.59
2022-12-19T00:38:07.339Z,0.59
2022-12-19T00:40:36.260Z,0.62
2022-12-19T00:43:04.174Z,0.67
2022-12-19T00:45:31.939Z,0.66
2022-12-19T00:48:00.445Z,0.66
2022-12-19T00:50:27.954Z,0.61
2022-12-19T00:52:55.396Z,0.69
2022-12-19T00:55:23.073Z,0.69
2022-12-19T00:57:52.547Z,0.74
2022-12-19T01:00:23.321Z,0.70
2022-12-19T01:02:51.082Z,0.71
2022-12-19T01:05:18.781Z,0.74
2022-12-19T01:07:46.275Z,0.76
2022-12-19T01:10:14.022Z,0.79
2022-12-19T01:12:46.640Z,0.78
2022-12-19T01:15:20.643Z,0.77
2022-12-19T01:17:48.893Z,0.76
2022-12-19T01:20:19.432Z,0.79
2022-12-19T01:22:54.212Z,0.81
2022-12-19T01:25:22.042Z,0.82
2022-12-19T01:27:49.653Z,0.82
2022-12-19T01:30:18.978Z,0.83
2022-12-19T01:32:47.591Z,0.84
2022-12-19T01:35:21.792Z,0.88
2022-12-19T01:37:50.181Z,0.88
2022-12-19T01:40:17.865Z,0.90
2022-12-19T01:42:45.557Z,0.93
2022-12-19T01:45:33.881Z,0.93
2022-12-19T01:48:15.988Z,0.95
2022-12-19T01:50:58.439Z,0.98
2022-12-19T01:53:33.205Z,0.93
2022-12-19T01:56:09.280Z,0.94
2022-12-19T01:58:39.412Z,0.97
2022-12-19T02:01:08.729Z,0.97
2022-12-19T02:03:38.490Z,0.98
2022-12-19T02:06:07.205Z,1.02
2022-12-19T02:08:36.038Z,1.03
2022-12-19T02:11:03.647Z,1.09
2022-12-19T02:13:31.561Z,1.10
2022-12-19T02:16:04.693Z,1.13
2022-12-19T02:18:40.889Z,1.13
2022-12-19T02:21:21.485Z,1.16
2022-12-19T02:24:15.469Z,1.18
2022-12-19T02:26:58.787Z,1.17
2022-12-19T02:30:09.066Z,1.27
2022-12-19T02:32:43.466Z,1.25
2022-12-19T02:35:15.617Z,1.29
2022-12-19T02:37:48.124Z,1.31
2022-12-19T02:40:21.383Z,1.33
2022-12-19T02:42:51.864Z,1.39
2022-12-19T02:45:26.987Z,1.40
2022-12-19T02:47:58.424Z,1.40
2022-12-19T02:50:37.418Z,1.49
2022-12-19T02:53:04.943Z,1.48
2022-12-19T02:55:36.252Z,1.50
2022-12-19T02:58:37.652Z,1.49
2022-12-19T03:01:13.990Z,1.55
2022-12-19T03:03:49.983Z,1.59
2022-12-19T03:06:23.687Z,1.67
2022-12-19T03:08:56.707Z,1.67
2022-12-19T03:11:28.510Z,1.63
2022-12-19T03:13:58.873Z,1.70
2022-12-19T03:16:26.696Z,1.69
2022-12-19T03:18:56.591Z,1.65
2022-12-19T03:21:27.404Z,1.68
2022-12-19T03:23:56.754Z,1.72
2022-12-19T03:26:26.854Z,1.78
2022-12-19T03:28:56.749Z,1.69
2022-12-19T03:31:26.362Z,1.73
2022-12-19T03:33:58.545Z,1.74
2022-12-19T03:36:29.917Z,1.79
2022-12-19T03:38:58.203Z,1.81
2022-12-19T03:41:40.271Z,1.80
2022-12-19T03:44:08.808Z,1.78
2022-12-19T03:46:39.865Z,1.85
2022-12-19T03:49:09.018Z,1.82
2022-12-19T03:51:42.699Z,1.82
2022-12-19T03:54:14.416Z,1.97
2022-12-19T03:56:47.825Z,1.95
2022-12-19T03:59:19.256Z,1.98
2022-12-19T04:01:47.731Z,1.98
2022-12-19T04:04:17.144Z,1.95
2022-12-19T04:06:45.202Z,1.95
2022-12-19T04:09:16.754Z,1.94
2022-12-19T04:11:52.405Z,2.06
2022-12-19T04:14:23.444Z,1.95
2022-12-19T04:16:57.218Z,1.96
2022-12-19T04:19:32.050Z,2.00
2022-12-19T04:22:04.829Z,2.06
2022-12-19T04:24:35.863Z,2.05
2022-12-19T04:27:06.773Z,2.06
2022-12-19T04:29:36.836Z,2.12
2022-12-19T04:32:07.308Z,2.13
2022-12-19T04:34:40.197Z,2.15
2022-12-19T04:37:12.259Z,2.12
2022-12-19T04:39:40.085Z,2.14
2022-12-19T04:42:07.632Z,2.19
2022-12-19T04:44:35.166Z,2.21
2022-12-19T04:47:03.481Z,2.28
2022-12-19T04:49:31.242Z,2.21
2022-12-19T04:52:00.294Z,2.26
2022-12-19T04:54:28.330Z,2.32
2022-12-19T04:56:56.300Z,2.36
2022-12-19T04:59:24.756Z,2.36
2022-12-19T05:01:52.582Z,2.43
2022-12-19T05:04:20.429Z,2.49
2022-12-19T05:06:48.840Z,2.48
2022-12-19T05:09:17.774Z,2.50
2022-12-19T05:11:45.497Z,2.52
2022-12-19T05:14:13.368Z,2.49
2022-12-19T05:16:41.175Z,2.52
2022-12-19T05:19:09.607Z,2.55
2022-12-19T05:21:37.065Z,2.63
2022-12-19T05:24:05.339Z,2.62
2022-12-19T05:26:34.334Z,2.76
2022-12-19T05:29:02.836Z,2.77
2022-12-19T05:31:30.621Z,2.75
2022-12-19T05:33:58.174Z,2.78
2022-12-19T05:36:32.180Z,2.81
2022-12-19T05:39:00.245Z,2.79
2022-12-19T05:41:27.816Z,2.86
2022-12-19T05:43:57.146Z,2.85
2022-12-19T05:46:25.666Z,2.89
2022-12-19T05:48:53.405Z,2.88
2022-12-19T05:51:22.149Z,2.86
2022-12-19T05:53:50.044Z,2.89
2022-12-19T05:56:19.603Z,2.90
2022-12-19T05:58:47.830Z,2.97
2022-12-19T06:01:18.729Z,2.96
2022-12-19T06:03:46.366Z,3.03
2022-12-19T06:06:15.288Z,3.08
2022-12-19T06:08:43.383Z,3.14
2022-12-19T06:11:11.787Z,3.24
2022-12-19T06:13:39.922Z,3.26
2022-12-19T06:16:10.416Z,3.29
2022-12-19T06:18:45.211Z,3.36
2022-12-19T06:21:14.759Z,3.33
2022-12-19T06:23:43.275Z,3.47
2022-12-19T06:26:18.722Z,3.50
2022-12-19T06:28:48.067Z,3.62
2022-12-19T06:31:16.840Z,3.69
2022-12-19T06:33:45.697Z,3.77
2022-12-19T06:36:16.004Z,4.05
2022-12-19T06:38:43.576Z,3.93
2022-12-19T06:41:29.654Z,4.07
2022-12-19T06:43:59.256Z,4.17
2022-12-19T06:46:26.852Z,4.17
2022-12-19T06:48:55.785Z,4.09
2022-12-19T06:51:24.597Z,4.13
2022-12-19T06:53:53.644Z,4.12
2022-12-19T06:56:21.713Z,4.15
2022-12-19T06:58:50.035Z,4.26
2022-12-19T07:01:18.328Z,4.13
2022-12-19T07:03:48.182Z,4.31
2022-12-19T07:06:20.655Z,4.28
2022-12-19T07:08:48.907Z,4.28
2022-12-19T07:11:16.478Z,4.40
2022-12-19T07:13:44.079Z,4.42
2022-12-19T07:16:12.038Z,4.41
2022-12-19T07:18:40.969Z,4.48
2022-12-19T07:21:11.306Z,4.44
2022-12-19T07:23:40.844Z,4.45
2022-12-19T07:26:08.457Z,4.47
2022-12-19T07:28:36.611Z,4.51
2022-12-19T07:31:05.350Z,4.56
2022-12-19T07:33:33.716Z,4.55
2022-12-19T07:36:01.417Z,4.60
2022-12-19T07:38:29.740Z,4.54
2022-12-19T07:41:01.987Z,4.64
2022-12-19T07:43:30.633Z,4.69
2022-12-19T07:45:58.437Z,4.69
2022-12-19T07:48:28.884Z,4.74
2022-12-19T07:50:56.437Z,4.73
2022-12-19T07:53:24.029Z,4.73
2022-12-19T07:55:51.707Z,4.82
2022-12-19T07:58:20.781Z,4.80
2022-12-19T08:00:55.238Z,4.91
2022-12-19T08:03:23.049Z,4.87
2022-12-19T08:05:51.130Z,4.86
2022-12-19T08:08:19.094Z,4.92
2022-12-19T08:10:47.899Z,4.96
2022-12-19T08:13:15.730Z,4.91
2022-12-19T08:15:44.734Z,5.04
2022-12-19T08:18:12.599Z,4.98
2022-12-19T08:20:40.399Z,4.92
2022-12-19T08:23:08.376Z,5.03
2022-12-19T08:25:35.982Z,5.01
2022-12-19T08:28:03.810Z,4.96
2022-12-19T08:30:31.656Z,4.98
2022-12-19T08:33:00.768Z,5.02
2022-12-19T08:35:28.377Z,5.03
2022-12-19T08:37:56.222Z,5.16
2022-12-19T08:40:24.325Z,5.11
2022-12-19T08:42:52.395Z,5.24
2022-12-19T08:45:20.193Z,5.22
2022-12-19T08:47:48.235Z,5.27
2022-12-19T08:50:17.393Z,5.30
2022-12-19T08:52:44.993Z,5.36
2022-12-19T08:55:12.836Z,5.40
2022-12-19T08:57:40.590Z,5.47
2022-12-19T09:00:09.890Z,5.47
2022-12-19T09:02:38.747Z,5.56
2022-12-19T09:06:01.766Z,5.47
2022-12-19T09:08:00.916Z,5.56
2022-12-19T09:10:30.535Z,5.63
2022-12-19T09:12:58.322Z,5.63
2022-12-19T09:15:26.209Z,5.71
2022-12-19T09:17:54.861Z,5.76
2022-12-19T09:20:25.401Z,5.75
2022-12-19T09:22:55.351Z,5.76
2022-12-19T09:25:24.362Z,5.76
2022-12-19T09:28:25.932Z,5.88
2022-12-19T09:30:39.762Z,5.87
2022-12-19T09:33:07.545Z,6.01
2022-12-19T09:35:37.034Z,6.01
2022-12-19T09:38:04.864Z,6.04
2022-12-19T09:40:44.270Z,6.19
2022-12-19T09:43:22.103Z,6.21
2022-12-19T09:45:54.931Z,6.21
2022-12-19T09:48:24.266Z,6.28
2022-12-19T09:51:09.359Z,6.24
2022-12-19T09:53:45.913Z,6.24
2022-12-19T09:56:34.066Z,6.26
2022-12-19T09:59:15.377Z,6.30
2022-12-19T10:01:50.891Z,6.30
2022-12-19T10:04:20.047Z,6.30
2022-12-19T10:07:12.514Z,6.40
2022-12-19T10:11:29.162Z,6.34
2022-12-19T10:12:50.985Z,6.34
2022-12-19T10:15:24.828Z,6.40
2022-12-19T10:18:06.541Z,6.45
2022-12-19T10:20:37.167Z,6.53
2022-12-19T10:23:19.180Z,6.48
2022-12-19T10:25:53.102Z,6.59
2022-12-19T10:28:39.430Z,6.61
2022-12-19T10:31:21.472Z,6.70
2022-12-19T10:33:57.217Z,6.73
2022-12-19T10:36:48.801Z,6.79
2022-12-19T10:39:18.828Z,6.84
2022-12-19T10:41:47.772Z,6.85
2022-12-19T10:44:19.506Z,6.87
2022-12-19T10:46:49.862Z,6.92
2022-12-19T10:49:19.083Z,6.95
2022-12-19T10:51:54.854Z,7.03
2022-12-19T10:54:33.069Z,7.06
2022-12-19T10:57:19.386Z,7.12
2022-12-19T11:00:00.250Z,7.10
2022-12-19T11:02:35.530Z,7.08
2022-12-19T11:05:03.776Z,7.07
2022-12-19T11:07:31.756Z,7.06
2022-12-19T11:10:23.138Z,7.17
2022-12-19T11:18:14.375Z,7.14
2022-12-19T11:20:12.307Z,7.16
2022-12-19T11:27:03.788Z,7.24
2022-12-19T11:29:54.947Z,7.33
2022-12-19T11:30:09.509Z,7.34
2022-12-19T11:30:45.890Z,7.37
2022-12-19T11:33:16.857Z,7.39
2022-12-19T11:35:50.204Z,7.50
2022-12-19T11:38:21.745Z,7.48
2022-12-19T11:40:52.822Z,7.48
2022-12-19T11:43:43.944Z,7.50
2022-12-19T11:46:22.390Z,7.57
2022-12-19T11:48:56.164Z,7.53
2022-12-19T11:51:29.626Z,7.51
2022-12-19T11:54:02.183Z,7.46
2022-12-19T11:56:30.417Z,7.51
2022-12-19T11:59:02.025Z,7.60
2022-12-19T12:01:43.638Z,7.72
2022-12-19T12:04:34.044Z,7.69
2022-12-19T12:07:04.116Z,7.82
2022-12-19T12:12:55.099Z,7.75
2022-12-19T12:18:38.386Z,7.71
2022-12-19T12:28:34.979Z,7.80
2022-12-19T12:28:44.066Z,7.78
2022-12-19T12:31:21.282Z,7.90
2022-12-19T12:31:42.780Z,7.89
2022-12-19T12:31:45.831Z,7.98
2022-12-19T12:31:50.066Z,7.94
2022-12-19T12:35:30.229Z,7.91
2022-12-19T12:39:18.302Z,7.90
2022-12-19T12:42:05.796Z,7.81
2022-12-19T12:44:41.093Z,7.82
2022-12-19T12:47:16.963Z,7.81
2022-12-19T12:49:46.210Z,7.82
2022-12-19T12:52:16.756Z,7.85
2022-12-19T12:54:51.348Z,7.80
2022-12-19T12:57:21.964Z,7.83
2022-12-19T13:00:18.243Z,7.85
2022-12-19T13:02:48.097Z,7.82
2022-12-19T13:05:32.590Z,7.83
2022-12-19T13:08:00.271Z,7.84
2022-12-19T13:10:31.902Z,7.81
2022-12-19T13:13:02.730Z,7.86
2022-12-19T13:15:39.793Z,7.76
2022-12-19T13:18:15.968Z,7.74
2022-12-19T13:20:46.094Z,7.72
2022-12-19T13:23:49.931Z,7.65
2022-12-19T13:26:52.416Z,7.63
2022-12-19T13:29:31.731Z,7.65
2022-12-19T13:32:13.626Z,7.75
2022-12-19T13:34:48.808Z,7.63
2022-12-19T13:39:57.248Z,7.65
2022-12-19T13:40:32.584Z,7.62
2022-12-19T13:43:31.468Z,7.59
2022-12-19T13:46:01.440Z,7.57
2022-12-19T13:48:32.321Z,7.58
2022-12-19T13:51:01.939Z,7.58
2022-12-19T13:53:30.731Z,7.60
2022-12-19T13:56:01.954Z,7.67
2022-12-19T13:58:32.624Z,7.68
2022-12-19T14:04:41.929Z,7.72
2022-12-19T14:07:36.965Z,7.67
2022-12-19T14:11:30.980Z,7.72
2022-12-19T14:13:50.132Z,7.74
2022-12-19T14:16:01.274Z,7.76
2022-12-19T14:18:44.253Z,7.81
2022-12-19T14:22:03.940Z,7.87
2022-12-19T14:24:15.001Z,7.90
2022-12-19T14:28:21.002Z,7.88
2022-12-19T14:30:36.531Z,7.97
2022-12-19T14:33:39.271Z,7.87
2022-12-19T14:36:10.814Z,7.92
2022-12-19T14:39:26.753Z,7.93
2022-12-19T14:42:01.073Z,7.88
2022-12-19T14:54:02.605Z,7.89
2022-12-19T14:54:06.517Z,7.83
2022-12-19T14:54:27.811Z,7.93
2022-12-19T14:54:39.880Z,8.04
2022-12-19T14:59:00.619Z,7.99
2022-12-19T15:01:30.469Z,7.97
2022-12-19T15:04:49.128Z,8.00
2022-12-19T15:07:07.333Z,7.87
2022-12-19T15:11:04.925Z,8.01
2022-12-19T15:14:51.743Z,8.08
2022-12-19T15:15:59.199Z,8.13
2022-12-19T15:18:31.478Z,8.02
2022-12-19T15:21:01.458Z,8.13
2022-12-19T15:23:33.809Z,7.99
2022-12-19T15:26:05.230Z,8.15
2022-12-19T15:28:40.571Z,8.09
2022-12-19T15:31:15.078Z,8.19
2022-12-19T15:34:14.511Z,8.13
2022-12-19T15:36:31.779Z,8.06
2022-12-19T15:39:05.570Z,8.21
2022-12-19T15:41:33.442Z,8.02
2022-12-19T15:44:06.636Z,8.14
2022-12-19T15:46:35.894Z,8.18
2022-12-19T15:49:08.620Z,8.15
2022-12-19T15:51:37.445Z,8.09
2022-12-19T15:54:38.727Z,8.00
2022-12-19T15:56:56.922Z,8.01
2022-12-19T15:59:36.526Z,8.04
2022-12-19T16:02:16.917Z,7.94
2022-12-19T16:04:45.451Z,7.96
2022-12-19T16:07:16.781Z,7.92
2022-12-19T16:09:46.146Z,7.70
2022-12-19T16:12:16.717Z,7.67
2022-12-19T16:14:45.073Z,7.71
2022-12-19T16:17:15.597Z,7.60
2022-12-19T16:19:44.580Z,7.60
2022-12-19T16:22:18.711Z,7.52
2022-12-19T16:24:48.227Z,7.59
2022-12-19T16:27:21.696Z,7.77
2022-12-19T16:29:50.902Z,7.67
2022-12-19T16:32:22.937Z,7.62
2022-12-19T16:34:51.730Z,7.86
2022-12-19T16:37:20.315Z,7.64
2022-12-19T16:39:49.322Z,7.70
2022-12-19T16:42:18.360Z,7.56
2022-12-19T16:44:47.108Z,7.92
2022-12-19T16:47:17.727Z,7.88
2022-12-19T16:49:46.264Z,8.04
2022-12-19T16:52:14.124Z,7.73
2022-12-19T16:54:42.167Z,7.75
2022-12-19T16:57:19.616Z,7.71
2022-12-19T16:59:47.778Z,7.82
2022-12-19T17:02:36.773Z,7.75
2022-12-19T17:05:05.240Z,7.59
2022-12-19T17:07:33.235Z,7.50
2022-12-19T17:10:01.096Z,7.66
2022-12-19T17:12:31.027Z,7.61
2022-12-19T17:14:59.761Z,7.63
2022-12-19T17:17:28.308Z,7.56
2022-12-19T17:19:56.235Z,7.53
2022-12-19T17:22:24.109Z,7.46
2022-12-19T17:24:51.778Z,7.56
2022-12-19T17:27:21.004Z,7.58
2022-12-19T17:29:50.225Z,7.63
2022-12-19T17:32:23.965Z,7.74
2022-12-19T17:34:53.804Z,7.59
2022-12-19T17:37:23.056Z,7.72
2022-12-19T17:39:50.903Z,7.60
2022-12-19T17:42:22.614Z,7.65
2022-12-19T17:44:53.115Z,7.69
2022-12-19T17:47:21.559Z,7.79
2022-12-19T17:49:50.322Z,7.84
2022-12-19T17:52:20.114Z,7.75
2022-12-19T17:54:48.333Z,7.88
2022-12-19T17:57:17.322Z,7.89
2022-12-19T17:59:46.687Z,7.86
2022-12-19T18:02:29.973Z,7.95
2022-12-19T18:04:58.487Z,7.89
2022-12-19T18:07:26.770Z,7.95
2022-12-19T18:09:57.207Z,7.97
2022-12-19T18:12:25.299Z,7.95
2022-12-19T18:14:53.123Z,7.98
2022-12-19T18:17:24.352Z,7.97
2022-12-19T18:19:54.223Z,8.07
2022-12-19T18:22:22.191Z,8.02
2022-12-19T18:24:50.266Z,7.99
2022-12-19T18:27:18.979Z,7.97
2022-12-19T18:29:48.530Z,7.96
2022-12-19T18:32:19.052Z,8.08
2022-12-19T18:34:49.156Z,8.09
2022-12-19T18:37:18.798Z,7.98
2022-12-19T18:39:47.069Z,7.89
2022-12-19T18:42:20.759Z,8.15
2022-12-19T18:44:49.181Z,8.17
2022-12-19T18:47:21.141Z,8.21
2022-12-19T18:49:52.741Z,7.97
2022-12-19T18:52:21.635Z,7.87
2022-12-19T18:54:51.683Z,8.01
2022-12-19T18:57:20.303Z,7.93
2022-12-19T18:59:48.568Z,7.97
2022-12-19T19:02:25.861Z,8.01
2022-12-19T19:04:57.052Z,8.10
2022-12-19T19:07:24.879Z,8.00
2022-12-19T19:09:54.108Z,7.94
2022-12-19T19:12:22.603Z,8.15
2022-12-19T19:14:52.177Z,7.97
2022-12-19T19:17:25.888Z,7.95
2022-12-19T19:19:53.867Z,7.95
2022-12-19T19:22:23.392Z,7.83
2022-12-19T19:24:52.088Z,7.88
2022-12-19T19:27:19.854Z,7.85
2022-12-19T19:29:48.514Z,8.01
2022-12-19T19:32:16.865Z,7.84
2022-12-19T19:34:47.063Z,7.94
2022-12-19T19:37:16.224Z,7.94
2022-12-19T19:39:46.081Z,7.94
2022-12-19T19:42:14.872Z,8.00
2022-12-19T19:44:42.606Z,7.95
2022-12-19T19:47:10.566Z,8.05
2022-12-19T19:49:38.422Z,8.20
2022-12-19T19:52:06.465Z,8.17
2022-12-19T19:54:35.903Z,8.28
2022-12-19T19:57:05.526Z,8.42
2022-12-19T19:59:33.359Z,8.35
2022-12-19T20:02:03.352Z,8.34
2022-12-19T20:04:31.990Z,8.43
2022-12-19T20:06:59.974Z,8.43
2022-12-19T20:09:28.049Z,8.36
2022-12-19T20:11:56.767Z,8.41
2022-12-19T20:14:27.917Z,8.52
2022-12-19T20:16:56.759Z,8.52
2022-12-19T20:19:24.851Z,8.56
2022-12-19T20:21:53.082Z,8.44
2022-12-19T20:24:21.223Z,8.49
2022-12-19T20:26:49.173Z,8.39
2022-12-19T20:29:17.035Z,8.32
2022-12-19T20:31:48.698Z,8.34
2022-12-19T20:34:16.773Z,8.38
2022-12-19T20:36:46.804Z,8.28
2022-12-19T20:42:56.466Z,8.51
2022-12-19T20:45:24.505Z,8.49
2022-12-19T20:47:55.492Z,8.53
2022-12-19T20:50:25.165Z,8.58
2022-12-19T20:52:53.039Z,8.49
2022-12-19T20:55:21.519Z,8.45
2022-12-19T20:57:49.430Z,8.41
2022-12-19T21:04:02.252Z,8.44
2022-12-19T21:06:30.337Z,8.41
2022-12-19T21:08:58.908Z,8.41
2022-12-19T21:11:28.762Z,8.49
2022-12-19T21:13:57.562Z,8.42
2022-12-19T21:16:27.487Z,8.48
2022-12-19T21:18:56.163Z,8.49
2022-12-19T21:21:27.488Z,8.61
2022-12-19T21:23:56.245Z,8.42
2022-12-19T21:26:25.902Z,8.44
2022-12-19T21:28:53.886Z,8.38
2022-12-19T21:31:25.226Z,8.41
2022-12-19T21:33:55.418Z,8.52
2022-12-19T21:36:29.877Z,8.51
2022-12-19T21:39:00.499Z,8.43
2022-12-19T21:41:29.402Z,8.45
2022-12-19T21:43:57.539Z,8.30
2022-12-19T21:46:27.454Z,8.26
2022-12-19T21:48:57.390Z,8.32
2022-12-19T21:51:31.995Z,8.40
2022-12-19T21:54:01.666Z,8.53
2022-12-19T21:56:31.726Z,8.58
2022-12-19T21:59:01.908Z,8.53
2022-12-19T22:01:30.898Z,8.60
2022-12-19T22:04:00.544Z,8.43
2022-12-19T22:06:33.176Z,8.50
2022-12-19T22:09:02.229Z,8.56
2022-12-19T22:11:30.700Z,8.44
2022-12-19T22:14:00.167Z,8.61
2022-12-19T22:16:29.384Z,8.53
2022-12-19T22:22:39.526Z,8.54
2022-12-19T22:25:08.403Z,8.68
2022-12-19T22:27:36.279Z,8.59
2022-12-19T22:30:10.567Z,8.61
2022-12-19T22:32:39.913Z,8.63
2022-12-19T22:35:08.485Z,8.50
2022-12-19T22:37:36.925Z,8.58
2022-12-19T23:13:33.707Z,8.76
